sensor_id;sensor_type;location;lat;lon;timestamp;pressure;altitude;pressure_sealevel;temperature;humidity
39083;BME280;24834;44.444;26.098;2023-04-26T04:07:23;99440.84;;;11.94;
39083;BME280;24834;44.444;26.098;2023-04-26T04:13:27;99433.56;;;11.82;
39083;BME280;24834;44.444;26.098;2023-04-26T04:19:29;99453.44;;;12.06;
39083;BME280;24834;44.444;26.098;2023-04-26T04:25:33;99453.88;;;12.16;
39083;BME280;24834;44.444;26.098;2023-04-26T04:31:42;99455.91;;;12.11;
39083;BME280;24834;44.444;26.098;2023-04-26T04:37:48;99466.25;;;12.33;
39083;BME280;24834;44.444;26.098;2023-04-26T04:43:52;99469.53;;;12.30;
39083;BME280;24834;44.444;26.098;2023-04-26T04:49:56;99470.28;;;12.30;
39083;BME280;24834;44.444;26.098;2023-04-26T04:56:01;99476.97;;;12.28;
39083;BME280;24834;44.444;26.098;2023-04-26T05:02:04;99479.00;;;12.14;
39083;BME280;24834;44.444;26.098;2023-04-26T05:08:06;99472.63;;;12.32;
39083;BME280;24834;44.444;26.098;2023-04-26T05:14:10;99494.00;;;12.39;
39083;BME280;24834;44.444;26.098;2023-04-26T05:20:14;99481.00;;;12.34;
39083;BME280;24834;44.444;26.098;2023-04-26T05:26:18;99488.91;;;12.17;
39083;BME280;24834;44.444;26.098;2023-04-26T05:32:49;99494.13;;;12.51;
39083;BME280;24834;44.444;26.098;2023-04-26T05:39:12;99495.78;;;12.81;
39083;BME280;24834;44.444;26.098;2023-04-26T05:45:15;99490.44;;;13.36;
39083;BME280;24834;44.444;26.098;2023-04-26T05:51:19;99506.41;;;13.40;
39083;BME280;24834;44.444;26.098;2023-04-26T05:57:22;99499.13;;;13.66;
39083;BME280;24834;44.444;26.098;2023-04-26T06:03:27;99485.84;;;13.54;
39083;BME280;24834;44.444;26.098;2023-04-26T06:09:32;99492.47;;;14.01;
39083;BME280;24834;44.444;26.098;2023-04-26T06:15:35;99478.31;;;14.39;
39083;BME280;24834;44.444;26.098;2023-04-26T06:21:38;99473.41;;;14.74;
39083;BME280;24834;44.444;26.098;2023-04-26T06:27:41;99461.31;;;14.97;
39083;BME280;24834;44.444;26.098;2023-04-26T06:33:44;99455.56;;;15.31;
39083;BME280;24834;44.444;26.098;2023-04-26T06:39:47;99459.41;;;15.73;
39083;BME280;24834;44.444;26.098;2023-04-26T06:45:50;99462.56;;;16.34;
39083;BME280;24834;44.444;26.098;2023-04-26T06:51:57;99460.03;;;16.88;
39083;BME280;24834;44.444;26.098;2023-04-26T06:57:59;99466.19;;;17.08;
39083;BME280;24834;44.444;26.098;2023-04-26T07:04:03;99477.00;;;17.53;
39083;BME280;24834;44.444;26.098;2023-04-26T07:10:07;99479.69;;;17.95;
39083;BME280;24834;44.444;26.098;2023-04-26T07:16:13;99463.34;;;17.93;
39083;BME280;24834;44.444;26.098;2023-04-26T07:22:16;99482.88;;;18.69;
39083;BME280;24834;44.444;26.098;2023-04-26T07:28:19;99478.72;;;18.98;
39083;BME280;24834;44.444;26.098;2023-04-26T07:34:23;99478.09;;;19.08;
39083;BME280;24834;44.444;26.098;2023-04-26T07:40:29;99476.06;;;18.71;
39083;BME280;24834;44.444;26.098;2023-04-26T07:46:33;99484.59;;;19.10;
39083;BME280;24834;44.444;26.098;2023-04-26T07:52:36;99482.44;;;19.49;
39083;BME280;24834;44.444;26.098;2023-04-26T07:58:40;99491.47;;;19.74;
39083;BME280;24834;44.444;26.098;2023-04-26T08:04:51;99487.66;;;20.12;
39083;BME280;24834;44.444;26.098;2023-04-26T08:10:55;99494.22;;;20.22;
39083;BME280;24834;44.444;26.098;2023-04-26T08:16:58;99491.91;;;20.71;
39083;BME280;24834;44.444;26.098;2023-04-26T08:23:04;99488.03;;;20.61;
39083;BME280;24834;44.444;26.098;2023-04-26T08:29:07;99500.94;;;20.52;
39083;BME280;24834;44.444;26.098;2023-04-26T08:35:13;99496.59;;;20.88;
39083;BME280;24834;44.444;26.098;2023-04-26T08:41:21;99494.06;;;20.51;
39083;BME280;24834;44.444;26.098;2023-04-26T08:47:37;99483.72;;;21.04;
39083;BME280;24834;44.444;26.098;2023-04-26T08:53:44;99498.25;;;21.10;
39083;BME280;24834;44.444;26.098;2023-04-26T08:59:52;99494.69;;;21.99;
39083;BME280;24834;44.444;26.098;2023-04-26T09:05:54;99494.53;;;21.32;
39083;BME280;24834;44.444;26.098;2023-04-26T09:12:00;99493.16;;;21.81;
39083;BME280;24834;44.444;26.098;2023-04-26T09:18:23;99487.66;;;21.42;
39083;BME280;24834;44.444;26.098;2023-04-26T09:24:27;99491.72;;;20.97;
39083;BME280;24834;44.444;26.098;2023-04-26T09:30:37;99502.91;;;20.55;
39083;BME280;24834;44.444;26.098;2023-04-26T09:37:02;99495.50;;;20.38;
39083;BME280;24834;44.444;26.098;2023-04-26T09:43:19;99496.25;;;20.39;
39083;BME280;24834;44.444;26.098;2023-04-26T09:49:32;99493.16;;;20.84;
39083;BME280;24834;44.444;26.098;2023-04-26T09:55:37;99498.03;;;20.68;
39083;BME280;24834;44.444;26.098;2023-04-26T10:01:43;99498.84;;;21.72;
39083;BME280;24834;44.444;26.098;2023-04-26T10:07:50;99496.22;;;22.36;
39083;BME280;24834;44.444;26.098;2023-04-26T10:13:55;99489.59;;;23.66;
39083;BME280;24834;44.444;26.098;2023-04-26T10:20:04;99491.91;;;24.18;
39083;BME280;24834;44.444;26.098;2023-04-26T10:27:14;99489.25;;;22.73;
39083;BME280;24834;44.444;26.098;2023-04-26T10:39:19;99483.09;;;21.39;
39083;BME280;24834;44.444;26.098;2023-04-26T10:45:29;99476.59;;;21.44;
39083;BME280;24834;44.444;26.098;2023-04-26T10:51:40;99479.38;;;22.28;
39083;BME280;24834;44.444;26.098;2023-04-26T10:58:32;99470.78;;;23.04;
39083;BME280;24834;44.444;26.098;2023-04-26T11:04:51;99473.44;;;23.11;
39083;BME280;24834;44.444;26.098;2023-04-26T11:17:04;99472.63;;;23.79;
39083;BME280;24834;44.444;26.098;2023-04-26T11:23:07;99473.59;;;23.52;
39083;BME280;24834;44.444;26.098;2023-04-26T11:29:17;99480.50;;;23.49;
39083;BME280;24834;44.444;26.098;2023-04-26T11:35:22;99473.16;;;22.84;
39083;BME280;24834;44.444;26.098;2023-04-26T11:41:24;99478.91;;;22.86;
39083;BME280;24834;44.444;26.098;2023-04-26T11:47:29;99468.19;;;23.55;
39083;BME280;24834;44.444;26.098;2023-04-26T11:53:41;99473.81;;;23.13;
39083;BME280;24834;44.444;26.098;2023-04-26T11:59:52;99469.78;;;23.49;
39083;BME280;24834;44.444;26.098;2023-04-26T12:05:56;99473.28;;;24.72;
39083;BME280;24834;44.444;26.098;2023-04-26T12:12:01;99473.13;;;24.86;
39083;BME280;24834;44.444;26.098;2023-04-26T12:18:09;99465.63;;;23.96;
39083;BME280;24834;44.444;26.098;2023-04-26T12:24:28;99464.31;;;23.63;
39083;BME280;24834;44.444;26.098;2023-04-26T12:30:39;99461.59;;;23.05;
39083;BME280;24834;44.444;26.098;2023-04-26T12:36:42;99459.44;;;22.68;
39083;BME280;24834;44.444;26.098;2023-04-26T12:42:48;99456.34;;;22.76;
39083;BME280;24834;44.444;26.098;2023-04-26T12:48:52;99467.53;;;22.22;
39083;BME280;24834;44.444;26.098;2023-04-26T12:55:00;99488.50;;;21.60;
39083;BME280;24834;44.444;26.098;2023-04-26T13:01:08;99496.78;;;20.08;
39083;BME280;24834;44.444;26.098;2023-04-26T13:07:14;99525.81;;;19.46;
39083;BME280;24834;44.444;26.098;2023-04-26T13:13:17;99555.47;;;18.43;
39083;BME280;24834;44.444;26.098;2023-04-26T13:19:26;99554.75;;;17.31;
39083;BME280;24834;44.444;26.098;2023-04-26T13:25:29;99563.84;;;16.83;
39083;BME280;24834;44.444;26.098;2023-04-26T13:31:31;99574.22;;;16.88;
39083;BME280;24834;44.444;26.098;2023-04-26T13:37:35;99567.78;;;17.05;
39083;BME280;24834;44.444;26.098;2023-04-26T13:43:37;99588.53;;;17.15;
39083;BME280;24834;44.444;26.098;2023-04-26T13:49:40;99595.44;;;16.88;
39083;BME280;24834;44.444;26.098;2023-04-26T13:55:44;99607.53;;;17.17;
39083;BME280;24834;44.444;26.098;2023-04-26T14:01:46;99609.53;;;17.20;
39083;BME280;24834;44.444;26.098;2023-04-26T14:07:49;99624.75;;;17.23;
39083;BME280;24834;44.444;26.098;2023-04-26T14:13:57;99633.75;;;17.19;
39083;BME280;24834;44.444;26.098;2023-04-26T14:19:59;99632.06;;;17.26;
39083;BME280;24834;44.444;26.098;2023-04-26T14:26:03;99640.63;;;17.20;
39083;BME280;24834;44.444;26.098;2023-04-26T14:32:06;99640.53;;;17.01;
39083;BME280;24834;44.444;26.098;2023-04-26T14:38:10;99645.88;;;17.16;
39083;BME280;24834;44.444;26.098;2023-04-26T14:44:17;99652.00;;;17.05;
39083;BME280;24834;44.444;26.098;2023-04-26T14:50:19;99675.22;;;17.23;
39083;BME280;24834;44.444;26.098;2023-04-26T14:56:22;99671.88;;;17.11;
39083;BME280;24834;44.444;26.098;2023-04-26T15:02:26;99666.09;;;17.21;
39083;BME280;24834;44.444;26.098;2023-04-26T15:08:29;99671.72;;;17.19;
39083;BME280;24834;44.444;26.098;2023-04-26T15:14:39;99683.28;;;16.95;
39083;BME280;24834;44.444;26.098;2023-04-26T15:20:41;99670.31;;;16.94;
39083;BME280;24834;44.444;26.098;2023-04-26T15:26:46;99680.50;;;16.92;
39083;BME280;24834;44.444;26.098;2023-04-26T15:32:53;99688.50;;;17.08;
39083;BME280;24834;44.444;26.098;2023-04-26T15:38:56;99690.13;;;16.97;
39083;BME280;24834;44.444;26.098;2023-04-26T15:44:58;99686.69;;;16.96;
39083;BME280;24834;44.444;26.098;2023-04-26T15:51:04;99699.00;;;16.88;
39083;BME280;24834;44.444;26.098;2023-04-26T15:57:06;99713.53;;;16.79;
39083;BME280;24834;44.444;26.098;2023-04-26T16:03:09;99716.28;;;16.55;
39083;BME280;24834;44.444;26.098;2023-04-26T16:09:13;99730.69;;;16.42;
39083;BME280;24834;44.444;26.098;2023-04-26T16:15:26;99743.09;;;16.13;
39083;BME280;24834;44.444;26.098;2023-04-26T16:21:29;99750.16;;;16.09;
39083;BME280;24834;44.444;26.098;2023-04-26T16:27:31;99768.28;;;16.07;
39083;BME280;24834;44.444;26.098;2023-04-26T16:33:35;99774.88;;;15.65;
39083;BME280;24834;44.444;26.098;2023-04-26T16:39:37;99790.13;;;15.68;
39083;BME280;24834;44.444;26.098;2023-04-26T16:45:40;99802.81;;;15.62;
39083;BME280;24834;44.444;26.098;2023-04-26T16:51:42;99813.06;;;15.52;
39083;BME280;24834;44.444;26.098;2023-04-26T16:57:47;99827.63;;;15.25;
39083;BME280;24834;44.444;26.098;2023-04-26T17:03:50;99832.88;;;15.04;
39083;BME280;24834;44.444;26.098;2023-04-26T17:09:55;99842.19;;;15.10;
39083;BME280;24834;44.444;26.098;2023-04-26T17:15:59;99843.16;;;15.06;
39083;BME280;24834;44.444;26.098;2023-04-26T17:22:03;99857.72;;;15.20;
39083;BME280;24834;44.444;26.098;2023-04-26T17:28:07;99863.66;;;14.97;
39083;BME280;24834;44.444;26.098;2023-04-26T17:34:12;99867.91;;;15.10;
39083;BME280;24834;44.444;26.098;2023-04-26T17:40:16;99881.09;;;15.18;
39083;BME280;24834;44.444;26.098;2023-04-26T17:46:20;99886.38;;;14.98;
39083;BME280;24834;44.444;26.098;2023-04-26T17:52:24;99903.72;;;14.87;
39083;BME280;24834;44.444;26.098;2023-04-26T17:58:28;99909.34;;;14.85;
39083;BME280;24834;44.444;26.098;2023-04-26T18:04:30;99909.94;;;14.82;
39083;BME280;24834;44.444;26.098;2023-04-26T18:10:34;99933.19;;;14.77;
39083;BME280;24834;44.444;26.098;2023-04-26T18:16:36;99949.53;;;14.79;
39083;BME280;24834;44.444;26.098;2023-04-26T18:22:39;99961.69;;;14.71;
39083;BME280;24834;44.444;26.098;2023-04-26T18:28:42;99964.13;;;14.85;
39083;BME280;24834;44.444;26.098;2023-04-26T18:34:46;99976.53;;;14.93;
39083;BME280;24834;44.444;26.098;2023-04-26T18:40:51;100001.31;;;14.88;
39083;BME280;24834;44.444;26.098;2023-04-26T18:46:54;100013.16;;;14.82;
39083;BME280;24834;44.444;26.098;2023-04-26T18:52:57;100017.56;;;14.78;
39083;BME280;24834;44.444;26.098;2023-04-26T18:58:59;100032.84;;;14.55;
39083;BME280;24834;44.444;26.098;2023-04-26T19:05:02;100037.38;;;14.55;
39083;BME280;24834;44.444;26.098;2023-04-26T19:11:07;100037.97;;;14.69;
39083;BME280;24834;44.444;26.098;2023-04-26T19:17:10;100050.88;;;14.62;
39083;BME280;24834;44.444;26.098;2023-04-26T19:23:15;100061.34;;;14.41;
39083;BME280;24834;44.444;26.098;2023-04-26T19:29:21;100051.88;;;14.49;
39083;BME280;24834;44.444;26.098;2023-04-26T19:35:23;100062.28;;;14.37;
39083;BME280;24834;44.444;26.098;2023-04-26T19:41:25;100057.47;;;14.39;
39083;BME280;24834;44.444;26.098;2023-04-26T19:47:28;100066.63;;;14.41;
39083;BME280;24834;44.444;26.098;2023-04-26T19:53:30;100081.72;;;14.15;
39083;BME280;24834;44.444;26.098;2023-04-26T19:59:35;100079.09;;;14.15;
39083;BME280;24834;44.444;26.098;2023-04-26T20:05:38;100086.84;;;14.12;
39083;BME280;24834;44.444;26.098;2023-04-26T20:11:42;100097.41;;;14.03;
39083;BME280;24834;44.444;26.098;2023-04-26T20:17:45;100107.47;;;13.84;
39083;BME280;24834;44.444;26.098;2023-04-26T20:23:49;100113.38;;;13.81;
39083;BME280;24834;44.444;26.098;2023-04-26T20:29:51;100113.38;;;13.81;
39083;BME280;24834;44.444;26.098;2023-04-26T20:35:56;100116.91;;;13.76;
39083;BME280;24834;44.444;26.098;2023-04-26T20:41:59;100120.50;;;13.72;
39083;BME280;24834;44.444;26.098;2023-04-26T20:48:03;100125.59;;;13.68;
39083;BME280;24834;44.444;26.098;2023-04-26T20:54:05;100127.09;;;13.52;
39083;BME280;24834;44.444;26.098;2023-04-26T21:00:08;100132.19;;;13.48;
39083;BME280;24834;44.444;26.098;2023-04-26T21:06:11;100129.00;;;13.29;
39083;BME280;24834;44.444;26.098;2023-04-26T21:12:14;100141.31;;;13.34;
39083;BME280;24834;44.444;26.098;2023-04-26T21:18:17;100137.22;;;13.28;
39083;BME280;24834;44.444;26.098;2023-04-26T21:24:20;100137.34;;;13.23;
39083;BME280;24834;44.444;26.098;2023-04-26T21:30:24;100152.00;;;13.07;
39083;BME280;24834;44.444;26.098;2023-04-26T21:36:27;100154.88;;;12.96;
39083;BME280;24834;44.444;26.098;2023-04-26T21:42:30;100164.16;;;13.08;
39083;BME280;24834;44.444;26.098;2023-04-26T21:48:32;100179.34;;;13.11;
39083;BME280;24834;44.444;26.098;2023-04-26T21:54:35;100188.72;;;12.94;
39083;BME280;24834;44.444;26.098;2023-04-26T22:00:38;100200.94;;;12.90;
39083;BME280;24834;44.444;26.098;2023-04-26T22:06:40;100198.66;;;12.75;
39083;BME280;24834;44.444;26.098;2023-04-26T22:12:44;100195.34;;;12.70;
39083;BME280;24834;44.444;26.098;2023-04-26T22:18:47;100208.16;;;12.85;
39083;BME280;24834;44.444;26.098;2023-04-26T22:24:49;100206.53;;;12.89;
39083;BME280;24834;44.444;26.098;2023-04-26T22:30:53;100221.25;;;12.90;
39083;BME280;24834;44.444;26.098;2023-04-26T22:36:55;100224.00;;;12.85;
39083;BME280;24834;44.444;26.098;2023-04-26T22:43:11;100219.44;;;12.77;
39083;BME280;24834;44.444;26.098;2023-04-26T22:49:13;100230.13;;;12.72;
39083;BME280;24834;44.444;26.098;2023-04-26T22:55:16;100221.31;;;12.76;
39083;BME280;24834;44.444;26.098;2023-04-26T23:01:18;100228.13;;;12.77;
39083;BME280;24834;44.444;26.098;2023-04-26T23:07:21;100224.78;;;12.85;
39083;BME280;24834;44.444;26.098;2023-04-26T23:13:24;100233.41;;;12.77;
39083;BME280;24834;44.444;26.098;2023-04-26T23:19:30;100238.50;;;12.74;
39083;BME280;24834;44.444;26.098;2023-04-26T23:25:32;100232.75;;;12.58;
39083;BME280;24834;44.444;26.098;2023-04-26T23:31:35;100228.78;;;12.47;
39083;BME280;24834;44.444;26.098;2023-04-26T23:37:38;100234.22;;;12.37;
39083;BME280;24834;44.444;26.098;2023-04-26T23:43:43;100238.16;;;12.53;
39083;BME280;24834;44.444;26.098;2023-04-26T23:49:47;100245.94;;;12.58;
39083;BME280;24834;44.444;26.098;2023-04-26T23:55:50;100239.50;;;12.64;
